createdAt,value
2022-09-29T03:59:30.549Z,0.00
2022-09-29T04:00:30.006Z,0.00
2022-09-29T04:01:30.521Z,0.00
2022-09-29T04:02:30.590Z,0.00
2022-09-29T04:03:30.013Z,0.00
2022-09-29T04:04:30.497Z,0.00
2022-09-29T04:05:30.505Z,0.00
2022-09-29T04:06:30.515Z,0.00
2022-09-29T04:07:30.503Z,0.00
2022-09-29T04:08:30.496Z,0.00
2022-09-29T04:09:30.511Z,0.00
2022-09-29T04:10:30.526Z,0.00
2022-09-29T04:11:30.516Z,0.00
2022-09-29T04:12:30.513Z,0.00
2022-09-29T04:13:30.508Z,0.00
2022-09-29T04:14:30.505Z,0.00
2022-09-29T04:15:30.523Z,0.00
2022-09-29T04:16:30.591Z,0.00
2022-09-29T04:17:30.520Z,0.00
2022-09-29T04:18:29.826Z,0.00
2022-09-29T04:19:30.521Z,0.00
2022-09-29T04:20:28.822Z,0.00
2022-09-29T04:21:30.533Z,0.00
2022-09-29T04:22:28.806Z,0.00
2022-09-29T04:23:30.522Z,0.00
2022-09-29T04:24:30.604Z,0.00
2022-09-29T04:25:30.533Z,0.00
2022-09-29T04:26:30.523Z,0.00
2022-09-29T04:27:30.524Z,0.00
2022-09-29T04:28:30.543Z,0.00
2022-09-29T04:29:30.520Z,0.00
2022-09-29T04:30:30.539Z,0.00
2022-09-29T04:31:28.877Z,0.00
2022-09-29T04:32:30.526Z,0.00
2022-09-29T04:33:30.528Z,0.00
2022-09-29T04:34:30.518Z,0.00
2022-09-29T04:35:34.819Z,0.00
2022-09-29T04:36:28.753Z,0.00
2022-09-29T04:37:30.529Z,0.00
2022-09-29T04:38:30.545Z,0.00
2022-09-29T04:39:30.554Z,0.00
2022-09-29T04:40:30.580Z,0.00
2022-09-29T04:41:30.551Z,0.00
2022-09-29T04:42:30.554Z,0.00
2022-09-29T04:43:28.737Z,0.00
2022-09-29T04:44:30.542Z,0.00
2022-09-29T04:45:28.808Z,0.00
2022-09-29T04:46:28.723Z,0.00
2022-09-29T04:47:28.751Z,0.00
2022-09-29T04:48:31.435Z,0.00
2022-09-29T04:49:30.054Z,0.00
2022-09-29T04:50:30.544Z,0.00
2022-09-29T04:51:28.737Z,0.00
2022-09-29T04:52:28.699Z,0.00
2022-09-29T04:53:28.707Z,0.00
2022-09-29T04:54:28.691Z,0.00
2022-09-29T04:55:30.585Z,0.00
2022-09-29T04:56:30.537Z,0.00
2022-09-29T04:57:30.593Z,0.00
2022-09-29T04:58:30.578Z,0.00
2022-09-29T04:59:30.566Z,0.00
2022-09-29T05:00:30.580Z,4.00
2022-09-29T05:01:28.670Z,0.00
2022-09-29T05:02:30.601Z,4.00
2022-09-29T05:03:30.054Z,4.00
2022-09-29T05:04:30.558Z,4.00
2022-09-29T05:05:49.657Z,4.00
2022-09-29T05:06:29.662Z,4.00
2022-09-29T05:07:30.561Z,8.00
2022-09-29T05:08:30.585Z,8.00
2022-09-29T05:09:33.630Z,8.00
2022-09-29T05:10:30.577Z,12.00
2022-09-29T05:11:30.549Z,12.00
2022-09-29T05:12:30.550Z,16.00
2022-09-29T05:13:30.572Z,20.00
2022-09-29T05:14:30.571Z,20.00
2022-09-29T05:15:30.574Z,24.00
2022-09-29T05:16:30.609Z,28.00
2022-09-29T05:17:30.552Z,28.00
2022-09-29T05:18:30.565Z,36.00
2022-09-29T05:19:30.574Z,36.00
2022-09-29T05:20:38.275Z,40.00
2022-09-29T05:21:30.568Z,48.00
2022-09-29T05:22:28.593Z,52.00
2022-09-29T05:23:30.071Z,56.00
2022-09-29T05:24:28.585Z,64.00
2022-09-29T05:25:28.614Z,68.00
2022-09-29T05:26:28.575Z,76.00
2022-09-29T05:27:30.564Z,80.00
2022-09-29T05:28:29.586Z,88.00
2022-09-29T05:29:29.573Z,96.00
2022-09-29T05:30:30.081Z,104.00
2022-09-29T05:31:29.600Z,112.00
2022-09-29T05:32:28.568Z,120.00
2022-09-29T05:33:30.099Z,128.00
2022-09-29T05:34:29.570Z,140.00
2022-09-29T05:35:30.121Z,148.00
2022-09-29T05:36:29.595Z,152.00
2022-09-29T05:37:30.097Z,164.00
2022-09-29T05:38:30.077Z,176.00
2022-09-29T05:39:30.072Z,180.00
2022-09-29T05:40:30.157Z,196.00
2022-09-29T05:41:30.101Z,204.00
2022-09-29T05:42:28.615Z,216.00
2022-09-29T05:43:28.604Z,224.00
2022-09-29T05:44:31.694Z,236.00
2022-09-29T05:45:28.537Z,248.00
2022-09-29T05:46:30.093Z,256.00
2022-09-29T05:47:30.094Z,268.00
2022-09-29T05:48:28.518Z,280.00
2022-09-29T05:49:42.232Z,292.00
2022-09-29T05:50:29.595Z,308.00
2022-09-29T05:51:30.107Z,316.00
2022-09-29T05:52:28.533Z,332.00
2022-09-29T05:53:34.445Z,344.00
2022-09-29T05:54:28.522Z,356.00
2022-09-29T05:55:28.475Z,368.00
2022-09-29T05:56:29.885Z,376.00
2022-09-29T05:57:28.477Z,388.00
2022-09-29T05:58:28.503Z,404.00
2022-09-29T05:59:28.470Z,416.00
2022-09-29T06:00:30.130Z,432.00
2022-09-29T06:01:30.245Z,452.00
2022-09-29T06:02:30.205Z,464.00
2022-09-29T06:03:30.107Z,480.00
2022-09-29T06:04:30.094Z,492.00
2022-09-29T06:05:30.108Z,504.00
2022-09-29T06:06:30.111Z,520.00
2022-09-29T06:07:30.110Z,532.00
2022-09-29T06:08:30.193Z,544.00
2022-09-29T06:09:30.248Z,556.00
2022-09-29T06:10:30.114Z,564.00
2022-09-29T06:11:30.143Z,576.00
2022-09-29T06:12:31.115Z,588.00
2022-09-29T06:13:30.111Z,596.00
2022-09-29T06:14:30.104Z,608.00
2022-09-29T06:15:30.126Z,620.00
2022-09-29T06:16:28.483Z,636.00
2022-09-29T06:17:30.124Z,652.00
2022-09-29T06:18:28.799Z,676.00
2022-09-29T06:19:28.398Z,704.00
2022-09-29T06:20:28.435Z,720.00
2022-09-29T06:21:28.431Z,732.00
2022-09-29T06:22:30.125Z,760.00
2022-09-29T06:23:28.385Z,776.00
2022-09-29T06:24:28.450Z,820.00
2022-09-29T06:25:28.427Z,916.00
2022-09-29T06:26:30.128Z,1088.00
2022-09-29T06:27:28.426Z,1244.00
2022-09-29T06:28:28.375Z,1292.00
2022-09-29T06:29:30.112Z,1320.00
2022-09-29T06:30:30.254Z,1344.00
2022-09-29T06:31:30.188Z,1364.00
2022-09-29T06:32:30.142Z,1424.00
2022-09-29T06:33:30.117Z,1456.00
2022-09-29T06:34:30.159Z,1488.00
2022-09-29T06:35:30.144Z,1588.00
2022-09-29T06:36:30.124Z,1624.00
2022-09-29T06:37:30.174Z,1644.00
2022-09-29T06:38:30.138Z,1680.00
2022-09-29T06:39:30.129Z,1708.00
2022-09-29T06:40:29.776Z,1744.00
2022-09-29T06:41:28.340Z,1764.00
2022-09-29T06:42:29.324Z,1792.00
2022-09-29T06:43:28.568Z,1808.00
2022-09-29T06:44:30.170Z,1828.00
2022-09-29T06:45:30.192Z,1868.00
2022-09-29T06:46:28.438Z,1856.00
2022-09-29T06:47:35.162Z,1904.00
2022-09-29T06:48:28.315Z,1860.00
2022-09-29T06:49:28.367Z,1924.00
2022-09-29T06:50:30.183Z,1916.00
2022-09-29T06:51:40.056Z,1988.00
2022-09-29T06:52:30.102Z,2056.00
2022-09-29T06:53:37.509Z,2148.00
2022-09-29T06:54:28.296Z,2104.00
2022-09-29T06:55:28.401Z,2296.00
2022-09-29T06:56:28.292Z,1540.00
2022-09-29T06:57:30.226Z,1404.00
2022-09-29T06:58:28.336Z,1444.00
2022-09-29T06:59:28.324Z,1504.00
2022-09-29T07:00:30.158Z,1340.00
2022-09-29T07:01:28.359Z,1288.00
2022-09-29T07:02:30.275Z,1484.00
2022-09-29T07:03:28.264Z,1248.00
2022-09-29T07:04:30.177Z,1360.00
2022-09-29T07:05:28.258Z,1280.00
2022-09-29T07:06:30.149Z,1212.00
2022-09-29T07:07:30.161Z,1176.00
2022-09-29T07:08:28.262Z,1272.00
2022-09-29T07:09:28.270Z,1252.00
2022-09-29T07:10:30.159Z,1256.00
2022-09-29T07:11:30.233Z,1312.00
2022-09-29T07:12:30.189Z,1360.00
2022-09-29T07:13:30.192Z,1280.00
2022-09-29T07:14:30.240Z,1216.00
2022-09-29T07:15:28.265Z,1296.00
2022-09-29T07:17:29.244Z,1196.00
2022-09-29T07:18:28.287Z,1232.00
2022-09-29T07:19:30.187Z,1208.00
2022-09-29T07:20:28.216Z,1132.00
2022-09-29T07:21:30.180Z,1252.00
2022-09-29T07:22:28.212Z,1396.00
2022-09-29T07:23:28.251Z,1312.00
2022-09-29T07:24:28.247Z,1280.00
2022-09-29T07:25:51.179Z,1372.00
2022-09-29T07:26:30.197Z,1392.00
2022-09-29T07:27:28.362Z,1540.00
2022-09-29T07:28:32.882Z,1364.00
2022-09-29T07:29:30.365Z,1564.00
2022-09-29T07:30:38.690Z,1572.00
2022-09-29T07:31:49.149Z,1388.00
2022-09-29T07:32:28.807Z,1508.00
2022-09-29T07:33:37.574Z,1492.00
2022-09-29T07:34:28.271Z,1552.00
2022-09-29T07:35:28.315Z,1632.00
2022-09-29T07:36:32.759Z,1540.00
2022-09-29T07:37:29.169Z,1588.00
2022-09-29T07:38:28.325Z,1776.00
2022-09-29T07:39:29.820Z,1968.00
2022-09-29T07:40:29.720Z,2028.00
2022-09-29T07:41:28.227Z,2028.00
2022-09-29T07:42:28.184Z,2024.00
2022-09-29T07:43:34.806Z,2104.00
2022-09-29T07:44:29.719Z,2216.00
2022-09-29T07:45:29.787Z,1984.00
2022-09-29T07:46:31.094Z,2104.00
2022-09-29T07:47:28.230Z,2308.00
2022-09-29T07:48:31.907Z,2500.00
2022-09-29T07:49:29.716Z,3196.00
2022-09-29T07:50:28.603Z,2752.00
2022-09-29T07:51:28.209Z,2696.00
2022-09-29T07:52:28.219Z,2304.00
2022-09-29T07:53:29.888Z,3172.00
2022-09-29T07:54:29.685Z,2268.00
2022-09-29T07:55:28.223Z,2400.00
2022-09-29T07:56:29.483Z,3456.00
2022-09-29T07:57:29.152Z,3272.00
2022-09-29T07:58:29.719Z,2856.00
2022-09-29T07:59:28.175Z,2272.00
2022-09-29T08:00:29.707Z,2604.00
2022-09-29T08:01:29.849Z,2312.00
2022-09-29T08:02:28.199Z,2644.00
2022-09-29T08:03:28.247Z,2504.00
2022-09-29T08:04:29.162Z,2832.00
2022-09-29T08:05:28.146Z,2636.00
2022-09-29T08:06:28.402Z,3616.00
2022-09-29T08:07:29.843Z,2364.00
2022-09-29T08:08:29.714Z,3348.00
2022-09-29T08:09:39.549Z,2688.00
2022-09-29T08:10:28.187Z,3152.00
2022-09-29T08:11:32.414Z,3436.00
2022-09-29T08:12:40.162Z,2944.00
2022-09-29T08:13:29.749Z,2828.00
2022-09-29T08:14:28.093Z,3928.00
2022-09-29T08:15:28.090Z,4100.00
2022-09-29T08:16:29.784Z,2852.00
2022-09-29T08:17:28.103Z,3052.00
2022-09-29T08:18:28.095Z,4004.00
2022-09-29T08:19:28.173Z,2700.00
2022-09-29T08:20:29.090Z,2696.00
2022-09-29T08:21:29.804Z,3648.00
2022-09-29T08:22:28.082Z,3856.00
2022-09-29T08:23:28.115Z,3452.00
2022-09-29T08:24:28.145Z,3956.00
2022-09-29T08:25:28.093Z,3760.00
2022-09-29T08:26:40.227Z,3720.00
2022-09-29T08:27:28.093Z,3540.00
2022-09-29T08:28:31.938Z,2704.00
2022-09-29T08:29:39.459Z,3068.00
2022-09-29T08:30:28.112Z,3424.00
2022-09-29T08:31:29.788Z,3376.00
2022-09-29T08:32:28.074Z,3080.00
2022-09-29T08:33:30.280Z,3668.00
2022-09-29T08:34:28.069Z,3948.00
2022-09-29T08:35:29.791Z,3596.00
2022-09-29T08:36:29.091Z,3452.00
2022-09-29T08:37:33.069Z,3480.00
2022-09-29T08:38:29.925Z,3556.00
2022-09-29T08:39:28.110Z,3476.00
2022-09-29T08:40:28.086Z,3348.00
2022-09-29T08:41:29.742Z,3308.00
2022-09-29T08:42:36.670Z,3068.00
2022-09-29T08:43:34.791Z,3236.00
2022-09-29T08:44:38.785Z,3040.00
2022-09-29T08:45:29.228Z,3092.00
2022-09-29T08:46:35.944Z,2976.00
2022-09-29T08:47:42.555Z,3132.00
2022-09-29T08:48:29.345Z,3092.00
2022-09-29T08:49:33.493Z,3220.00
2022-09-29T08:50:30.749Z,3020.00
2022-09-29T08:51:40.807Z,2412.00
2022-09-29T08:52:28.105Z,2092.00
2022-09-29T08:53:29.761Z,3176.00
2022-09-29T08:54:37.353Z,2420.00
2022-09-29T08:55:28.041Z,3156.00
2022-09-29T08:56:28.076Z,3044.00
2022-09-29T08:57:29.762Z,3184.00
2022-09-29T08:58:28.040Z,3064.00
2022-09-29T08:59:28.082Z,2996.00
2022-09-29T09:00:29.757Z,3100.00
2022-09-29T09:01:28.297Z,1980.00
2022-09-29T09:02:28.122Z,3000.00
2022-09-29T09:03:28.072Z,2372.00
2022-09-29T09:04:30.026Z,2856.00
2022-09-29T09:05:28.108Z,3272.00
2022-09-29T09:06:29.770Z,3056.00
2022-09-29T09:07:29.772Z,2028.00
2022-09-29T09:08:30.498Z,2076.00
2022-09-29T09:09:29.848Z,2704.00
2022-09-29T09:10:28.031Z,3120.00
2022-09-29T09:11:29.828Z,3084.00
2022-09-29T09:12:29.818Z,3160.00
2022-09-29T09:13:28.069Z,3028.00
2022-09-29T09:14:30.366Z,3364.00
2022-09-29T09:15:30.117Z,3632.00
2022-09-29T09:16:37.327Z,3440.00
2022-09-29T09:17:29.976Z,3340.00
2022-09-29T09:18:29.591Z,3156.00
2022-09-29T09:19:28.145Z,3016.00
2022-09-29T09:20:28.290Z,3788.00
2022-09-29T09:21:34.961Z,3040.00
2022-09-29T09:22:29.943Z,2992.00
2022-09-29T09:23:28.437Z,4072.00
2022-09-29T09:24:28.792Z,4164.00
2022-09-29T09:25:34.556Z,3676.00
2022-09-29T09:26:30.323Z,3472.00
2022-09-29T09:27:39.604Z,3456.00
2022-09-29T09:28:31.765Z,3296.00
2022-09-29T09:29:28.154Z,3128.00
2022-09-29T09:30:30.396Z,3156.00
2022-09-29T09:31:28.785Z,3020.00
2022-09-29T09:32:34.927Z,2736.00
2022-09-29T09:33:31.709Z,2508.00
2022-09-29T09:34:40.312Z,3032.00
2022-09-29T09:35:29.096Z,3000.00
2022-09-29T09:36:34.176Z,3040.00
2022-09-29T09:37:28.128Z,3100.00
2022-09-29T09:38:31.487Z,3180.00
2022-09-29T09:39:28.321Z,2924.00
2022-09-29T09:40:30.832Z,2068.00
2022-09-29T09:41:30.032Z,3256.00
2022-09-29T09:42:31.937Z,3204.00
2022-09-29T09:43:30.205Z,3248.00
2022-09-29T09:44:35.094Z,3160.00
2022-09-29T09:45:34.126Z,3108.00
2022-09-29T09:46:36.352Z,3260.00
2022-09-29T09:47:32.521Z,3428.00
2022-09-29T09:48:31.884Z,3504.00
2022-09-29T09:49:33.258Z,3548.00
2022-09-29T09:50:57.807Z,3484.00
2022-09-29T09:51:39.983Z,3320.00
2022-09-29T09:52:29.834Z,3236.00
2022-09-29T09:53:30.242Z,3176.00
2022-09-29T09:54:28.089Z,3496.00
2022-09-29T09:55:28.077Z,3876.00
2022-09-29T09:56:28.049Z,4244.00
2022-09-29T09:57:29.823Z,3844.00
2022-09-29T09:58:28.054Z,2880.00
2022-09-29T09:59:28.030Z,4376.00
2022-09-29T10:00:28.086Z,4192.00
2022-09-29T10:02:28.094Z,4752.00
2022-09-29T10:13:31.591Z,4384.00
2022-09-29T10:14:29.514Z,4448.00
2022-09-29T10:15:31.094Z,3752.00
2022-09-29T10:16:29.575Z,2724.00
2022-09-29T10:17:31.069Z,2400.00
2022-09-29T10:18:29.488Z,2620.00
2022-09-29T10:19:31.057Z,2392.00
2022-09-29T10:20:29.902Z,2228.00
2022-09-29T10:21:32.036Z,2148.00
2022-09-29T10:22:31.061Z,3900.00
2022-09-29T10:23:29.476Z,4076.00
2022-09-29T10:24:31.080Z,2724.00
2022-09-29T10:25:31.085Z,4456.00
2022-09-29T10:26:29.492Z,4652.00
2022-09-29T10:27:29.780Z,4848.00
2022-09-29T10:28:29.536Z,5020.00
2022-09-29T10:29:31.103Z,5052.00
2022-09-29T10:30:29.554Z,4996.00
2022-09-29T10:31:29.509Z,5096.00
2022-09-29T10:32:29.858Z,5084.00
2022-09-29T10:33:30.435Z,4816.00
2022-09-29T10:34:31.076Z,4220.00
2022-09-29T10:35:33.828Z,4836.00
2022-09-29T10:36:30.947Z,4472.00
2022-09-29T10:37:31.366Z,4232.00
2022-09-29T10:38:31.141Z,4152.00
2022-09-29T10:39:31.026Z,2216.00
2022-09-29T10:40:34.638Z,2236.00
2022-09-29T10:41:32.007Z,2344.00
2022-09-29T10:42:29.638Z,2624.00
2022-09-29T10:43:31.609Z,2828.00
2022-09-29T10:44:29.634Z,2804.00
2022-09-29T10:45:29.540Z,2984.00
2022-09-29T10:46:31.071Z,2992.00
2022-09-29T10:47:31.078Z,5108.00
2022-09-29T10:48:31.121Z,3396.00
2022-09-29T10:49:29.595Z,2988.00
2022-09-29T10:50:34.973Z,5164.00
2022-09-29T10:51:31.078Z,5188.00
2022-09-29T10:52:31.089Z,5092.00
2022-09-29T10:54:31.126Z,2672.00
2022-09-29T10:55:31.090Z,2836.00
2022-09-29T10:56:29.584Z,5448.00
2022-09-29T10:57:32.336Z,5620.00
2022-09-29T10:58:45.220Z,5628.00
2022-09-29T10:59:29.565Z,5480.00
2022-09-29T11:00:29.583Z,5428.00
2022-09-29T11:01:29.652Z,5328.00
2022-09-29T11:02:30.896Z,5340.00
2022-09-29T11:03:29.599Z,5364.00
2022-09-29T11:04:30.682Z,5476.00
2022-09-29T11:05:29.641Z,5464.00
2022-09-29T11:06:29.536Z,5412.00
2022-09-29T11:07:31.182Z,5384.00
2022-09-29T11:08:29.548Z,5144.00
2022-09-29T11:09:29.576Z,4364.00
2022-09-29T11:10:30.050Z,5180.00
2022-09-29T11:11:29.707Z,4304.00
2022-09-29T11:12:31.344Z,2948.00
2022-09-29T11:13:32.144Z,5232.00
2022-09-29T11:14:29.551Z,5140.00
2022-09-29T11:15:29.877Z,5036.00
2022-09-29T11:16:37.451Z,5248.00
2022-09-29T11:17:30.990Z,5372.00
2022-09-29T11:18:31.425Z,5560.00
2022-09-29T11:19:29.636Z,5760.00
2022-09-29T11:20:30.475Z,5788.00
2022-09-29T11:21:31.350Z,5792.00
2022-09-29T11:22:32.333Z,5812.00
2022-09-29T11:23:33.715Z,5844.00
2022-09-29T11:24:31.029Z,5864.00
2022-09-29T11:25:29.666Z,5868.00
2022-09-29T11:26:29.903Z,5936.00
2022-09-29T11:27:30.231Z,6100.00
2022-09-29T11:28:29.866Z,6288.00
2022-09-29T11:29:31.692Z,6448.00
2022-09-29T11:30:29.621Z,6316.00
2022-09-29T11:31:34.042Z,6404.00
2022-09-29T11:32:33.399Z,6576.00
2022-09-29T11:33:32.655Z,6712.00
2022-09-29T11:34:30.431Z,6904.00
2022-09-29T11:35:33.355Z,7140.00
2022-09-29T11:36:30.936Z,7344.00
2022-09-29T11:38:46.778Z,7768.00
2022-09-29T11:39:32.140Z,8084.00
2022-09-29T11:40:39.730Z,8100.00
2022-09-29T11:42:49.405Z,7764.00
2022-09-29T11:43:35.852Z,7496.00
2022-09-29T11:44:29.727Z,7404.00
2022-09-29T11:45:30.674Z,2724.00
2022-09-29T11:46:32.685Z,2616.00
2022-09-29T11:47:29.637Z,2708.00
2022-09-29T11:48:30.897Z,7140.00
2022-09-29T11:49:29.668Z,5200.00
2022-09-29T11:50:32.921Z,2856.00
2022-09-29T11:51:32.998Z,3860.00
2022-09-29T11:52:31.889Z,8020.00
2022-09-29T11:53:30.651Z,7940.00
2022-09-29T11:54:31.753Z,8056.00
2022-09-29T11:55:29.798Z,8056.00
2022-09-29T11:56:31.667Z,8032.00
2022-09-29T11:57:29.726Z,8080.00
2022-09-29T11:58:29.684Z,8452.00
2022-09-29T11:59:31.840Z,8652.00
2022-09-29T12:00:29.733Z,2996.00
2022-09-29T12:01:29.712Z,8320.00
2022-09-29T12:02:30.953Z,8400.00
2022-09-29T12:03:29.845Z,8596.00
2022-09-29T12:04:31.358Z,9024.00
2022-09-29T12:05:29.705Z,9140.00
2022-09-29T12:06:29.707Z,9244.00
2022-09-29T12:07:31.673Z,9336.00
2022-09-29T12:08:29.726Z,9560.00
2022-09-29T12:09:31.078Z,9796.00
2022-09-29T12:10:29.750Z,10268.00
2022-09-29T12:12:11.356Z,10556.00
2022-09-29T12:12:32.255Z,10564.00
2022-09-29T12:13:29.879Z,10708.00
2022-09-29T12:14:29.755Z,10704.00
2022-09-29T12:15:29.806Z,3620.00
2022-09-29T12:16:29.844Z,10704.00
2022-09-29T12:18:29.886Z,11380.00
2022-09-29T12:19:29.780Z,11408.00
2022-09-29T12:20:31.750Z,8644.00
2022-09-29T12:21:31.683Z,3972.00
2022-09-29T12:22:33.305Z,4532.00
2022-09-29T12:23:31.680Z,13240.00
2022-09-29T12:24:31.840Z,8184.00
2022-09-29T12:25:31.703Z,13624.00
2022-09-29T12:26:30.807Z,4544.00
2022-09-29T12:27:31.693Z,4244.00
2022-09-29T12:28:31.712Z,4320.00
2022-09-29T12:29:31.697Z,4728.00
2022-09-29T12:30:31.776Z,9512.00
2022-09-29T12:31:31.700Z,16464.00
2022-09-29T12:32:29.828Z,14300.00
2022-09-29T12:33:29.878Z,51744.00
2022-09-29T12:35:31.708Z,55104.00
2022-09-29T12:36:29.867Z,58336.00
2022-09-29T12:37:29.858Z,56064.00
2022-09-29T12:38:29.881Z,51456.00
2022-09-29T12:39:29.885Z,49888.00
2022-09-29T12:40:32.264Z,50304.00
2022-09-29T12:41:29.879Z,50432.00
2022-09-29T12:42:31.711Z,51296.00
2022-09-29T12:43:29.888Z,54464.00
2022-09-29T12:44:29.906Z,53536.00
2022-09-29T12:45:34.860Z,51296.00
2022-09-29T12:46:29.934Z,53632.00
2022-09-29T12:47:31.736Z,47264.00
2022-09-29T12:48:31.720Z,23616.00
2022-09-29T12:49:31.812Z,17088.00
2022-09-29T12:50:31.707Z,19136.00
2022-09-29T12:51:31.717Z,42272.00
2022-09-29T12:54:30.009Z,15660.00
2022-09-29T12:55:29.488Z,17228.00
2022-09-29T12:56:29.487Z,38816.00
2022-09-29T12:57:29.524Z,59040.00
2022-09-29T12:58:30.485Z,57984.00
2022-09-29T12:59:31.009Z,35168.00
2022-09-29T13:00:27.697Z,19328.00
2022-09-29T13:01:27.779Z,12848.00
2022-09-29T13:02:29.076Z,14440.00
2022-09-29T13:03:27.783Z,55680.00
2022-09-29T13:04:27.714Z,59328.00
2022-09-29T13:05:27.775Z,59456.00
2022-09-29T13:06:27.747Z,57312.00
2022-09-29T13:07:29.005Z,60480.00
2022-09-29T13:08:27.782Z,60096.00
2022-09-29T13:09:30.594Z,61760.00
2022-09-29T13:10:27.775Z,58304.00
2022-09-29T13:11:29.541Z,56000.00
2022-09-29T13:12:29.505Z,54976.00
2022-09-29T13:13:27.832Z,56736.00
2022-09-29T13:14:27.772Z,57952.00
2022-09-29T13:15:27.809Z,59456.00
2022-09-29T13:16:29.600Z,4404.00
2022-09-29T13:17:29.634Z,3220.00
2022-09-29T13:18:29.017Z,2908.00
2022-09-29T13:19:52.492Z,2796.00
2022-09-29T13:20:27.821Z,2804.00
2022-09-29T13:21:29.523Z,9480.00
2022-09-29T13:22:29.543Z,1948.00
2022-09-29T13:23:28.838Z,1728.00
2022-09-29T13:24:29.514Z,1788.00
2022-09-29T13:25:29.585Z,1920.00
2022-09-29T13:26:29.556Z,2220.00
2022-09-29T13:27:29.540Z,2676.00
2022-09-29T13:28:29.550Z,3228.00
2022-09-29T13:29:29.565Z,3960.00
2022-09-29T13:30:29.616Z,5136.00
2022-09-29T13:31:33.364Z,6900.00
2022-09-29T13:32:29.550Z,9360.00
2022-09-29T13:33:27.954Z,6024.00
2022-09-29T13:34:27.922Z,58144.00
2022-09-29T13:35:27.899Z,6532.00
2022-09-29T13:36:30.174Z,4804.00
2022-09-29T13:37:28.891Z,4396.00
2022-09-29T13:38:29.577Z,4316.00
2022-09-29T13:39:27.910Z,4288.00
2022-09-29T13:40:29.051Z,4520.00
2022-09-29T13:41:29.680Z,4624.00
2022-09-29T13:42:29.766Z,4488.00
2022-09-29T13:43:27.917Z,4632.00
2022-09-29T13:44:30.249Z,5288.00
2022-09-29T13:45:31.619Z,6048.00
2022-09-29T13:46:39.831Z,9204.00
2022-09-29T13:47:28.074Z,54496.00
2022-09-29T13:48:28.110Z,58208.00
2022-09-29T13:49:29.558Z,60800.00
2022-09-29T13:50:27.946Z,58336.00
2022-09-29T13:51:28.572Z,55008.00
2022-09-29T13:52:27.953Z,53248.00
2022-09-29T13:53:28.268Z,55200.00
2022-09-29T13:54:29.807Z,55296.00
2022-09-29T13:55:28.340Z,53952.00
2022-09-29T13:56:29.562Z,53696.00
2022-09-29T13:57:28.579Z,53184.00
2022-09-29T13:58:27.956Z,53888.00
2022-09-29T13:59:29.567Z,53792.00
2022-09-29T14:00:27.974Z,53504.00
2022-09-29T14:01:27.995Z,54912.00
2022-09-29T14:02:29.652Z,55328.00
2022-09-29T14:03:27.996Z,14444.00
2022-09-29T14:04:28.025Z,7224.00
2022-09-29T14:05:29.578Z,7284.00
2022-09-29T14:06:43.491Z,4696.00
2022-09-29T14:07:28.000Z,4156.00
2022-09-29T14:08:28.001Z,4120.00
2022-09-29T14:09:29.606Z,4340.00
2022-09-29T14:10:29.592Z,4828.00
2022-09-29T14:11:28.019Z,5584.00
2022-09-29T14:12:29.599Z,14792.00
2022-09-29T14:13:28.030Z,51360.00
2022-09-29T14:14:29.571Z,5572.00
2022-09-29T14:15:29.582Z,5600.00
2022-09-29T14:16:28.115Z,10188.00
2022-09-29T14:17:29.570Z,11860.00
2022-09-29T14:18:29.640Z,19840.00
2022-09-29T14:19:29.575Z,31552.00
2022-09-29T14:20:29.609Z,19584.00
2022-09-29T14:21:29.596Z,31616.00
2022-09-29T14:22:29.604Z,47840.00
2022-09-29T14:23:29.581Z,45824.00
2022-09-29T14:24:30.801Z,15364.00
2022-09-29T14:25:29.594Z,34496.00
2022-09-29T14:26:29.635Z,16716.00
2022-09-29T14:27:29.597Z,40320.00
2022-09-29T14:28:29.588Z,22848.00
2022-09-29T14:29:28.081Z,8348.00
2022-09-29T14:30:28.151Z,28416.00
2022-09-29T14:31:29.599Z,41440.00
2022-09-29T14:32:32.630Z,45792.00
2022-09-29T14:33:29.605Z,44864.00
2022-09-29T14:34:29.624Z,44704.00
2022-09-29T14:35:28.095Z,41696.00
2022-09-29T14:36:29.617Z,43072.00
2022-09-29T14:37:28.120Z,22624.00
2022-09-29T14:38:28.112Z,37920.00
2022-09-29T14:39:28.107Z,33952.00
2022-09-29T14:40:28.116Z,35456.00
2022-09-29T14:41:29.625Z,35776.00
2022-09-29T14:42:28.113Z,35232.00
2022-09-29T14:43:28.123Z,34432.00
2022-09-29T14:44:30.114Z,33376.00
2022-09-29T14:45:28.251Z,33728.00
2022-09-29T14:46:30.186Z,33024.00
2022-09-29T14:47:28.134Z,31168.00
2022-09-29T14:48:30.108Z,32512.00
2022-09-29T14:49:28.134Z,32256.00
2022-09-29T14:50:30.121Z,31680.00
2022-09-29T14:51:30.627Z,32192.00
2022-09-29T14:52:28.160Z,32864.00
2022-09-29T14:53:30.132Z,31840.00
2022-09-29T14:54:28.171Z,30400.00
2022-09-29T14:55:30.124Z,30016.00
2022-09-29T14:56:30.148Z,28192.00
2022-09-29T14:57:28.175Z,23648.00
2022-09-29T14:58:30.123Z,21952.00
2022-09-29T14:59:30.133Z,22208.00
2022-09-29T15:00:29.205Z,22304.00
2022-09-29T15:01:28.207Z,22912.00
2022-09-29T15:02:30.182Z,24512.00
2022-09-29T15:03:30.349Z,24544.00
2022-09-29T15:04:28.245Z,17888.00
2022-09-29T15:05:31.271Z,6744.00
2022-09-29T15:06:28.203Z,3920.00
2022-09-29T15:07:28.220Z,3768.00
2022-09-29T15:08:30.148Z,3632.00
2022-09-29T15:09:28.234Z,3524.00
2022-09-29T15:10:28.216Z,3444.00
2022-09-29T15:11:30.145Z,3356.00
2022-09-29T15:12:30.156Z,3264.00
2022-09-29T15:13:30.136Z,3156.00
2022-09-29T15:14:30.147Z,3056.00
2022-09-29T15:15:30.212Z,2796.00
2022-09-29T15:16:30.156Z,2192.00
2022-09-29T15:17:30.155Z,2172.00
2022-09-29T15:18:30.155Z,2128.00
2022-09-29T15:19:30.148Z,2088.00
2022-09-29T15:20:30.147Z,1988.00
2022-09-29T15:21:30.164Z,2032.00
2022-09-29T15:22:30.156Z,2052.00
2022-09-29T15:23:30.162Z,2192.00
2022-09-29T15:24:30.161Z,2532.00
2022-09-29T15:25:28.250Z,2736.00
2022-09-29T15:26:30.171Z,2820.00
2022-09-29T15:27:28.259Z,2832.00
2022-09-29T15:28:28.260Z,2804.00
2022-09-29T15:29:28.256Z,2564.00
2022-09-29T15:30:30.167Z,2340.00
2022-09-29T15:31:28.400Z,2360.00
2022-09-29T15:32:28.270Z,2236.00
2022-09-29T15:33:30.223Z,2168.00
2022-09-29T15:34:28.262Z,2248.00
2022-09-29T15:35:28.270Z,2308.00
2022-09-29T15:36:28.256Z,2408.00
2022-09-29T15:37:28.290Z,2580.00
2022-09-29T15:38:30.174Z,2784.00
2022-09-29T15:39:28.265Z,2956.00
2022-09-29T15:40:30.178Z,3056.00
2022-09-29T15:41:30.658Z,3084.00
2022-09-29T15:42:28.254Z,2988.00
2022-09-29T15:43:30.192Z,2812.00
2022-09-29T15:44:28.255Z,2612.00
2022-09-29T15:45:30.189Z,2428.00
2022-09-29T15:46:28.301Z,2260.00
2022-09-29T15:47:30.182Z,2148.00
2022-09-29T15:48:28.264Z,2048.00
2022-09-29T15:49:30.202Z,1948.00
2022-09-29T15:50:30.189Z,1848.00
2022-09-29T15:51:28.256Z,1752.00
2022-09-29T15:52:30.200Z,1676.00
2022-09-29T15:53:28.264Z,1632.00
2022-09-29T15:54:30.213Z,1616.00
2022-09-29T15:55:30.190Z,1600.00
2022-09-29T15:56:31.515Z,1572.00
2022-09-29T15:57:30.192Z,1548.00
2022-09-29T15:58:30.186Z,1528.00
2022-09-29T15:59:30.207Z,1508.00
2022-09-29T16:00:29.251Z,1492.00
2022-09-29T16:01:30.288Z,1472.00
2022-09-29T16:12:45.093Z,1340.00
2022-09-29T16:13:43.461Z,1308.00
2022-09-29T16:14:46.903Z,1268.00
2022-09-29T16:15:43.561Z,1228.00
2022-09-29T16:16:43.454Z,1188.00
2022-09-29T16:17:43.457Z,1144.00
2022-09-29T16:18:43.448Z,1112.00
2022-09-29T16:19:45.079Z,1088.00
2022-09-29T16:20:45.075Z,1068.00
2022-09-29T16:21:43.448Z,1040.00
2022-09-29T16:22:45.063Z,1000.00
2022-09-29T16:23:43.436Z,964.00
2022-09-29T16:24:45.090Z,920.00
2022-09-29T16:25:43.437Z,880.00
2022-09-29T16:26:43.478Z,844.00
2022-09-29T16:27:43.431Z,812.00
2022-09-29T16:28:45.105Z,784.00
2022-09-29T16:29:43.433Z,756.00
2022-09-29T16:30:45.100Z,728.00
2022-09-29T16:31:43.445Z,700.00
2022-09-29T16:32:45.071Z,676.00
2022-09-29T16:33:45.092Z,644.00
2022-09-29T16:34:45.072Z,612.00
2022-09-29T16:35:45.073Z,584.00
2022-09-29T16:36:45.075Z,560.00
2022-09-29T16:37:45.075Z,540.00
2022-09-29T16:38:45.091Z,520.00
2022-09-29T16:39:45.078Z,496.00
2022-09-29T16:40:45.080Z,472.00